createdAt,value
2018-06-07T00:01:46.070Z,18.03
2018-06-07T00:04:15.233Z,15.03
2018-06-07T00:06:44.033Z,17.90
2018-06-07T00:09:11.904Z,19.90
2018-06-07T00:11:40.005Z,15.80
2018-06-07T00:14:08.136Z,14.50
2018-06-07T00:16:35.744Z,15.53
2018-06-07T00:19:04.156Z,14.27
2018-06-07T00:21:31.940Z,15.30
2018-06-07T00:23:59.408Z,17.90
2018-06-07T00:26:27.689Z,15.20
2018-06-07T00:28:55.091Z,13.43
2018-06-07T00:31:22.835Z,15.73
2018-06-07T00:33:50.928Z,19.17
2018-06-07T00:36:19.216Z,15.67
2018-06-07T00:38:46.809Z,17.80
2018-06-07T00:41:14.748Z,18.13
2018-06-07T00:43:42.749Z,17.63
2018-06-07T00:46:10.899Z,15.27
2018-06-07T00:48:39.280Z,16.37
2018-06-07T00:51:07.428Z,14.30
2018-06-07T00:53:35.998Z,16.80
2018-06-07T00:56:03.626Z,13.63
2018-06-07T00:58:31.324Z,17.97
2018-06-07T01:00:59.342Z,16.80
2018-06-07T01:03:27.278Z,19.00
2018-06-07T01:05:56.447Z,16.83
2018-06-07T01:08:24.361Z,14.73
2018-06-07T01:10:52.690Z,19.23
2018-06-07T01:13:20.224Z,21.20
2018-06-07T01:15:47.696Z,15.83
2018-06-07T01:18:15.013Z,17.10
2018-06-07T01:20:42.926Z,14.67
2018-06-07T01:23:11.047Z,16.57
2018-06-07T01:25:39.220Z,16.43
2018-06-07T01:28:06.957Z,14.37
2018-06-07T01:30:39.652Z,16.27
2018-06-07T01:33:26.951Z,15.93
2018-06-07T01:36:00.232Z,18.13
2018-06-07T01:38:33.077Z,17.43
2018-06-07T01:41:00.392Z,17.07
2018-06-07T01:43:27.988Z,14.80
2018-06-07T01:45:56.160Z,17.43
2018-06-07T01:48:24.012Z,18.53
2018-06-07T01:50:52.056Z,14.80
2018-06-07T01:53:20.449Z,14.00
2018-06-07T01:55:48.887Z,14.20
2018-06-07T01:58:16.512Z,15.73
2018-06-07T02:00:46.044Z,16.47
2018-06-07T02:03:13.692Z,15.33
2018-06-07T02:05:41.044Z,17.03
2018-06-07T02:08:08.504Z,17.90
2018-06-07T02:10:36.409Z,14.03
2018-06-07T02:13:05.235Z,19.07
2018-06-07T02:15:32.731Z,12.57
2018-06-07T02:18:00.997Z,15.90
2018-06-07T02:20:28.469Z,15.20
2018-06-07T02:22:56.124Z,13.57
2018-06-07T02:25:24.106Z,13.13
2018-06-07T02:27:51.597Z,12.57
2018-06-07T02:30:20.292Z,12.23
2018-06-07T02:32:48.487Z,13.43
2018-06-07T02:35:16.201Z,12.93
2018-06-07T02:37:45.222Z,12.97
2018-06-07T02:40:12.879Z,13.93
2018-06-07T02:42:40.956Z,15.33
2018-06-07T02:45:09.132Z,13.20
2018-06-07T02:47:37.996Z,16.53
2018-06-07T02:50:05.893Z,11.87
2018-06-07T02:52:33.277Z,15.23
2018-06-07T02:55:01.773Z,13.53
2018-06-07T02:57:30.076Z,12.23
2018-06-07T02:59:57.884Z,11.53
2018-06-07T03:02:26.892Z,11.97
2018-06-07T03:04:54.712Z,11.70
2018-06-07T03:07:22.436Z,10.33
2018-06-07T03:09:50.692Z,12.40
2018-06-07T03:12:18.405Z,12.40
2018-06-07T03:14:46.160Z,13.73
2018-06-07T03:17:14.279Z,12.20
2018-06-07T03:19:42.598Z,10.67
2018-06-07T03:22:10.129Z,11.78
2018-06-07T03:24:37.869Z,10.10
2018-06-07T03:27:05.874Z,11.83
2018-06-07T03:29:34.097Z,10.27
2018-06-07T03:32:01.960Z,12.53
2018-06-07T03:34:30.523Z,13.00
2018-06-07T03:36:58.068Z,13.10
2018-06-07T03:39:26.005Z,10.27
2018-06-07T03:41:53.408Z,9.87
2018-06-07T03:44:21.135Z,12.83
2018-06-07T03:46:48.876Z,11.10
2018-06-07T03:49:17.299Z,10.87
2018-06-07T03:51:45.229Z,10.83
2018-06-07T03:54:13.592Z,11.40
2018-06-07T03:56:41.451Z,10.90
2018-06-07T03:59:09.209Z,10.80
2018-06-07T04:01:37.684Z,9.50
2018-06-07T04:04:06.332Z,12.20
2018-06-07T04:06:37.670Z,10.70
2018-06-07T04:09:06.956Z,10.57
2018-06-07T04:11:35.217Z,10.67
2018-06-07T04:14:04.014Z,10.10
2018-06-07T04:16:31.673Z,8.63
2018-06-07T04:18:59.350Z,12.57
2018-06-07T04:21:27.665Z,13.73
2018-06-07T04:23:55.496Z,10.60
2018-06-07T04:26:23.005Z,9.23
2018-06-07T04:28:50.856Z,10.00
2018-06-07T04:31:18.741Z,7.97
2018-06-07T04:33:47.013Z,11.50
2018-06-07T04:36:14.621Z,15.63
2018-06-07T04:38:42.873Z,17.70
2018-06-07T04:41:11.020Z,15.93
2018-06-07T04:43:38.815Z,13.50
2018-06-07T04:46:06.654Z,16.13
2018-06-07T04:48:34.234Z,17.40
2018-06-07T04:51:02.128Z,15.83
2018-06-07T04:53:29.844Z,16.23
2018-06-07T04:55:57.149Z,13.70
2018-06-07T04:58:24.450Z,13.83
2018-06-07T05:00:52.197Z,11.90
2018-06-07T05:03:19.468Z,9.33
2018-06-07T05:05:46.765Z,7.67
2018-06-07T05:08:14.040Z,10.00
2018-06-07T05:10:41.322Z,9.10
2018-06-07T05:13:08.597Z,7.47
2018-06-07T05:15:35.921Z,15.60
2018-06-07T05:18:03.224Z,10.47
2018-06-07T05:20:30.556Z,8.90
2018-06-07T05:22:57.814Z,8.17
2018-06-07T05:25:25.104Z,8.80
2018-06-07T05:27:54.413Z,7.60
2018-06-07T05:30:21.730Z,9.07
2018-06-07T05:32:49.041Z,10.13
2018-06-07T05:35:16.339Z,7.63
2018-06-07T05:37:43.687Z,7.60
2018-06-07T05:40:11.011Z,9.57
2018-06-07T05:42:38.293Z,8.03
2018-06-07T05:45:05.605Z,8.07
2018-06-07T05:47:32.941Z,10.93
2018-06-07T05:50:00.271Z,6.30
2018-06-07T05:52:27.565Z,9.00
2018-06-07T05:54:54.853Z,5.77
2018-06-07T05:57:22.137Z,5.50
2018-06-07T05:59:49.441Z,5.30
2018-06-07T06:02:16.772Z,4.80
2018-06-07T06:04:44.064Z,5.23
2018-06-07T06:07:11.369Z,6.03
2018-06-07T06:09:38.749Z,6.83
2018-06-07T06:12:06.165Z,5.27
2018-06-07T06:14:33.449Z,5.20
2018-06-07T06:17:00.727Z,4.90
2018-06-07T06:19:27.998Z,4.87
2018-06-07T06:21:55.336Z,4.57
2018-06-07T06:24:22.592Z,5.50
2018-06-07T06:26:49.881Z,4.83
2018-06-07T06:29:17.153Z,4.60
2018-06-07T06:31:44.487Z,4.80
2018-06-07T06:34:11.750Z,4.50
2018-06-07T06:36:39.052Z,5.33
2018-06-07T06:39:06.968Z,5.13
2018-06-07T06:41:34.275Z,3.83
2018-06-07T06:44:01.560Z,4.87
2018-06-07T06:46:28.888Z,5.17
2018-06-07T06:48:56.165Z,5.70
2018-06-07T06:51:23.481Z,3.90
2018-06-07T06:53:50.755Z,6.33
2018-06-07T06:56:18.020Z,4.20
2018-06-07T06:58:45.322Z,3.77
2018-06-07T07:01:12.645Z,4.97
2018-06-07T07:03:40.320Z,4.80
2018-06-07T07:06:07.612Z,6.20
2018-06-07T07:08:34.938Z,3.83
2018-06-07T07:11:02.202Z,3.37
2018-06-07T07:13:29.503Z,8.33
2018-06-07T07:15:56.770Z,3.50
2018-06-07T07:18:24.067Z,3.83
2018-06-07T07:20:51.365Z,3.73
2018-06-07T07:23:18.715Z,3.97
2018-06-07T07:25:46.074Z,4.47
2018-06-07T07:28:13.390Z,4.77
2018-06-07T07:30:40.652Z,3.33
2018-06-07T07:33:07.960Z,5.33
2018-06-07T07:35:35.257Z,4.10
2018-06-07T07:38:02.586Z,3.73
2018-06-07T07:40:29.906Z,3.80
2018-06-07T07:42:57.236Z,4.67
2018-06-07T07:45:29.936Z,6.47
2018-06-07T07:47:57.226Z,4.93
2018-06-07T07:50:24.492Z,3.93
2018-06-07T07:52:51.786Z,5.10
2018-06-07T07:55:19.068Z,3.83
2018-06-07T07:57:46.384Z,6.60
2018-06-07T08:00:13.685Z,4.23
2018-06-07T08:02:40.976Z,5.63
2018-06-07T08:05:08.272Z,4.30
2018-06-07T08:07:35.555Z,5.07
2018-06-07T08:10:02.857Z,4.00
2018-06-07T08:12:30.146Z,5.80
2018-06-07T08:14:57.448Z,4.10
2018-06-07T08:17:24.728Z,4.00
2018-06-07T08:19:52.008Z,5.20
2018-06-07T08:22:19.265Z,5.70
2018-06-07T08:24:46.591Z,4.47
2018-06-07T08:27:13.891Z,4.97
2018-06-07T08:29:41.196Z,4.77
2018-06-07T08:32:08.498Z,4.80
2018-06-07T08:34:35.800Z,4.53
2018-06-07T08:37:03.071Z,7.40
2018-06-07T08:39:30.444Z,4.67
2018-06-07T08:41:58.385Z,9.37
2018-06-07T08:44:25.896Z,5.20
2018-06-07T08:46:53.249Z,4.37
2018-06-07T08:49:20.663Z,4.83
2018-06-07T08:51:48.018Z,5.40
2018-06-07T08:54:15.429Z,5.77
2018-06-07T08:56:42.784Z,6.00
2018-06-07T08:59:10.277Z,6.03
2018-06-07T09:01:37.617Z,5.93
2018-06-07T09:04:05.012Z,6.77
2018-06-07T09:06:32.413Z,6.47
2018-06-07T09:08:59.885Z,7.50
2018-06-07T09:11:27.212Z,5.30
2018-06-07T09:13:54.589Z,4.93
2018-06-07T09:16:21.948Z,5.60
2018-06-07T09:18:49.322Z,5.60
2018-06-07T09:21:16.698Z,7.70
2018-06-07T09:23:44.037Z,7.50
2018-06-07T09:26:11.348Z,11.30
2018-06-07T09:28:38.692Z,9.33
2018-06-07T09:31:06.126Z,7.03
2018-06-07T09:33:33.755Z,5.77
2018-06-07T09:36:01.063Z,5.43
2018-06-07T09:38:28.492Z,6.77
2018-06-07T09:40:55.977Z,4.73
2018-06-07T09:43:23.372Z,6.57
2018-06-07T09:45:50.817Z,4.77
2018-06-07T09:48:18.174Z,5.40
2018-06-07T09:50:45.516Z,5.53
2018-06-07T09:53:12.817Z,7.20
2018-06-07T09:55:40.131Z,6.10
2018-06-07T09:58:07.487Z,5.87
2018-06-07T10:00:34.732Z,6.97
2018-06-07T10:03:02.033Z,4.93
2018-06-07T10:05:29.324Z,8.90
2018-06-07T10:07:56.597Z,7.17
2018-06-07T10:10:23.891Z,9.23
2018-06-07T10:12:51.219Z,6.33
2018-06-07T10:15:18.543Z,7.17
2018-06-07T10:17:50.096Z,6.47
2018-06-07T10:20:17.422Z,6.70
2018-06-07T10:22:44.711Z,6.80
2018-06-07T10:25:12.008Z,5.27
2018-06-07T10:27:39.289Z,6.63
2018-06-07T10:30:06.620Z,5.57
2018-06-07T10:32:33.921Z,9.10
2018-06-07T10:35:01.294Z,11.53
2018-06-07T10:37:28.593Z,7.40
2018-06-07T10:39:55.970Z,7.47
2018-06-07T10:42:23.267Z,6.13
2018-06-07T10:44:50.574Z,6.73
2018-06-07T10:47:18.011Z,8.27
2018-06-07T10:49:45.336Z,7.33
2018-06-07T10:52:12.688Z,7.53
2018-06-07T10:54:39.956Z,6.57
2018-06-07T10:57:07.309Z,6.70
2018-06-07T10:59:34.605Z,7.87
2018-06-07T11:02:01.944Z,13.47
2018-06-07T11:04:29.278Z,11.17
2018-06-07T11:06:56.584Z,6.83
2018-06-07T11:09:23.866Z,7.30
2018-06-07T11:11:52.111Z,7.07
2018-06-07T11:14:19.390Z,7.30
2018-06-07T11:16:46.708Z,7.53
2018-06-07T11:19:13.989Z,7.93
2018-06-07T11:21:41.297Z,6.93
2018-06-07T11:24:08.588Z,7.27
2018-06-07T11:26:35.898Z,8.90
2018-06-07T11:29:03.209Z,6.37
2018-06-07T11:31:30.547Z,7.80
2018-06-07T11:33:57.879Z,8.87
2018-06-07T11:36:25.190Z,9.53
2018-06-07T11:38:52.487Z,9.83
2018-06-07T11:41:19.818Z,11.83
2018-06-07T11:43:48.181Z,11.37
2018-06-07T11:46:15.469Z,9.60
2018-06-07T11:48:42.787Z,11.23
2018-06-07T11:51:10.155Z,10.80
2018-06-07T11:53:37.429Z,9.20
2018-06-07T11:56:04.776Z,11.43
2018-06-07T11:58:32.053Z,7.03
2018-06-07T12:00:59.366Z,8.20
2018-06-07T12:03:26.659Z,7.33
2018-06-07T12:05:53.948Z,7.53
2018-06-07T12:08:21.265Z,8.13
2018-06-07T12:10:48.582Z,7.13
2018-06-07T12:13:15.910Z,6.93
2018-06-07T12:15:43.199Z,8.80
2018-06-07T12:18:10.603Z,8.73
2018-06-07T12:20:37.905Z,8.33
2018-06-07T12:23:05.223Z,8.13
2018-06-07T12:25:32.496Z,8.70
2018-06-07T12:27:59.825Z,8.27
2018-06-07T12:30:27.126Z,6.00
2018-06-07T12:32:54.452Z,6.07
2018-06-07T12:35:21.729Z,5.77
2018-06-07T12:37:49.047Z,5.73
2018-06-07T12:40:16.367Z,5.93
2018-06-07T12:42:43.753Z,6.13
2018-06-07T12:45:11.113Z,6.67
2018-06-07T12:47:38.423Z,5.33
2018-06-07T12:50:05.839Z,5.47
2018-06-07T12:52:33.200Z,7.83
2018-06-07T12:55:00.550Z,6.27
2018-06-07T12:57:27.852Z,5.80
2018-06-07T12:59:55.154Z,7.77
2018-06-07T13:02:22.512Z,7.87
2018-06-07T13:04:49.867Z,5.37
2018-06-07T13:07:17.188Z,5.20
2018-06-07T13:09:44.570Z,5.00
2018-06-07T13:12:11.908Z,5.10
2018-06-07T13:14:39.204Z,5.33
2018-06-07T13:17:10.954Z,5.85
2018-06-07T13:19:38.312Z,7.10
2018-06-07T13:22:05.632Z,6.80
2018-06-07T13:24:33.204Z,5.77
2018-06-07T13:27:00.495Z,5.53
2018-06-07T13:29:27.857Z,5.33
2018-06-07T13:31:55.149Z,5.83
2018-06-07T13:34:22.484Z,6.47
2018-06-07T13:36:49.747Z,6.73
2018-06-07T13:39:17.091Z,5.00
2018-06-07T13:41:44.464Z,5.07
2018-06-07T13:44:11.789Z,4.47
2018-06-07T13:46:39.179Z,5.33
2018-06-07T13:49:06.498Z,4.80
2018-06-07T13:51:33.818Z,6.10
2018-06-07T13:54:01.220Z,5.50
2018-06-07T13:56:28.496Z,4.80
2018-06-07T13:58:55.810Z,4.80
2018-06-07T14:01:23.108Z,5.33
2018-06-07T14:03:50.411Z,5.30
2018-06-07T14:06:17.727Z,5.20
2018-06-07T14:08:45.034Z,4.57
2018-06-07T14:11:12.345Z,7.30
2018-06-07T14:13:39.648Z,6.93
2018-06-07T14:16:06.934Z,4.90
2018-06-07T14:18:34.244Z,5.23
2018-06-07T14:21:01.524Z,7.03
2018-06-07T14:23:28.845Z,7.47
2018-06-07T14:25:56.153Z,5.53
2018-06-07T14:28:23.449Z,6.23
2018-06-07T14:30:50.789Z,6.03
2018-06-07T14:33:18.072Z,7.30
2018-06-07T14:35:45.378Z,5.00
2018-06-07T14:38:12.731Z,6.93
2018-06-07T14:40:40.100Z,8.07
2018-06-07T14:43:07.807Z,7.50
2018-06-07T14:45:35.212Z,6.27
2018-06-07T14:48:02.581Z,6.73
2018-06-07T14:50:29.877Z,5.17
2018-06-07T14:52:57.252Z,5.33
2018-06-07T14:55:24.673Z,7.17
2018-06-07T14:57:52.133Z,6.87
2018-06-07T15:00:19.438Z,6.83
2018-06-07T15:02:46.717Z,7.70
2018-06-07T15:05:14.034Z,4.40
2018-06-07T15:07:41.329Z,5.07
2018-06-07T15:10:08.654Z,6.73
2018-06-07T15:12:35.980Z,6.03
2018-06-07T15:15:03.338Z,5.50
2018-06-07T15:17:30.623Z,5.20
2018-06-07T15:19:57.919Z,5.87
2018-06-07T15:22:25.216Z,5.43
2018-06-07T15:24:52.503Z,5.40
2018-06-07T15:27:19.779Z,8.17
2018-06-07T15:29:47.072Z,9.73
2018-06-07T15:32:14.686Z,5.80
2018-06-07T15:34:42.018Z,6.03
2018-06-07T15:37:09.308Z,4.97
2018-06-07T15:39:36.637Z,5.53
2018-06-07T15:42:06.207Z,5.33
2018-06-07T15:44:33.528Z,5.77
2018-06-07T15:47:00.811Z,5.60
2018-06-07T15:49:28.139Z,6.03
2018-06-07T15:51:55.439Z,4.97
2018-06-07T15:54:22.741Z,5.07
2018-06-07T15:56:50.057Z,5.00
2018-06-07T15:59:17.333Z,4.70
2018-06-07T16:01:44.696Z,4.80
2018-06-07T16:04:11.979Z,4.90
2018-06-07T16:06:39.299Z,6.07
2018-06-07T16:09:07.276Z,4.60
2018-06-07T16:11:34.816Z,8.70
2018-06-07T16:14:02.218Z,4.70
2018-06-07T16:16:29.573Z,5.27
2018-06-07T16:18:56.919Z,6.87
2018-06-07T16:21:24.238Z,5.93
2018-06-07T16:23:51.527Z,5.87
2018-06-07T16:26:18.932Z,5.77
2018-06-07T16:28:46.208Z,6.73
2018-06-07T16:31:14.605Z,6.37
2018-06-07T16:33:41.880Z,5.70
2018-06-07T16:36:09.173Z,8.10
2018-06-07T16:38:36.469Z,8.43
2018-06-07T16:41:03.794Z,6.63
2018-06-07T16:43:31.120Z,7.33
2018-06-07T16:45:58.456Z,7.33
2018-06-07T16:48:25.751Z,8.30
2018-06-07T16:50:53.102Z,6.97
2018-06-07T16:53:20.389Z,7.60
2018-06-07T16:55:47.687Z,7.90
2018-06-07T16:58:14.961Z,8.90
2018-06-07T17:00:42.272Z,10.27
2018-06-07T17:03:09.556Z,11.87
2018-06-07T17:05:36.869Z,9.47
2018-06-07T17:08:04.296Z,10.00
2018-06-07T17:10:31.613Z,10.27
2018-06-07T17:12:58.924Z,11.77
2018-06-07T17:15:26.241Z,9.47
2018-06-07T17:17:54.173Z,11.07
2018-06-07T17:20:21.476Z,10.83
2018-06-07T17:22:49.155Z,9.67
2018-06-07T17:25:16.552Z,11.27
2018-06-07T17:27:44.029Z,13.80
2018-06-07T17:30:11.438Z,10.87
2018-06-07T17:32:38.881Z,10.57
2018-06-07T17:35:06.377Z,9.73
2018-06-07T17:37:33.849Z,12.27
2018-06-07T17:40:01.787Z,12.30
2018-06-07T17:42:29.376Z,12.03
2018-06-07T17:44:56.828Z,14.03
2018-06-07T17:47:24.280Z,14.20
2018-06-07T17:49:54.577Z,15.37
2018-06-07T17:52:22.036Z,12.80
2018-06-07T17:54:52.262Z,16.17
2018-06-07T17:57:19.838Z,13.60
2018-06-07T17:59:47.361Z,12.87
2018-06-07T18:02:14.774Z,15.80
2018-06-07T18:04:49.299Z,13.40
2018-06-07T18:07:23.288Z,15.07
2018-06-07T18:09:51.261Z,14.63
2018-06-07T18:12:18.801Z,15.10
2018-06-07T18:14:46.201Z,15.30
2018-06-07T18:17:15.042Z,19.43
2018-06-07T18:19:42.593Z,15.07
2018-06-07T18:22:10.065Z,14.93
2018-06-07T18:24:37.933Z,17.93
2018-06-07T18:27:05.441Z,14.97
2018-06-07T18:29:33.279Z,15.17
2018-06-07T18:32:01.224Z,15.47
2018-06-07T18:34:31.358Z,15.53
2018-06-07T18:36:58.899Z,16.97
2018-06-07T18:39:26.217Z,17.53
2018-06-07T18:41:53.560Z,17.23
2018-06-07T18:44:20.873Z,17.07
2018-06-07T18:46:48.156Z,16.93
2018-06-07T18:49:29.105Z,20.23
2018-06-07T18:54:59.546Z,14.17
2018-06-07T18:57:29.771Z,16.10
2018-06-07T19:02:45.862Z,16.83
2018-06-07T19:05:13.341Z,18.03
2018-06-07T19:07:40.745Z,18.93
2018-06-07T19:10:14.607Z,18.60
2018-06-07T19:12:42.120Z,16.73
2018-06-07T19:15:12.184Z,17.97
2018-06-07T19:17:39.922Z,17.07
2018-06-07T19:20:13.037Z,18.13
2018-06-07T19:22:40.514Z,19.60
2018-06-07T19:25:13.373Z,18.33
2018-06-07T19:27:41.116Z,17.13
2018-06-07T19:30:08.633Z,18.10
2018-06-07T19:32:41.611Z,17.27
2018-06-07T19:35:11.619Z,15.93
2018-06-07T19:37:39.009Z,17.37
2018-06-07T19:40:11.802Z,19.00
2018-06-07T19:42:39.801Z,18.27
2018-06-07T19:45:07.340Z,18.17
2018-06-07T19:47:34.980Z,19.30
2018-06-07T19:50:02.673Z,17.93
2018-06-07T19:52:30.151Z,17.57
2018-06-07T19:54:57.612Z,18.77
2018-06-07T19:57:25.198Z,18.70
2018-06-07T19:59:52.916Z,20.53
2018-06-07T20:02:20.401Z,19.73
2018-06-07T20:04:48.017Z,22.50
2018-06-07T20:07:15.420Z,18.60
2018-06-07T20:09:42.909Z,19.23
2018-06-07T20:12:10.381Z,18.87
2018-06-07T20:14:37.801Z,18.50
2018-06-07T20:17:05.248Z,19.37
2018-06-07T20:19:32.680Z,16.87
2018-06-07T20:22:00.265Z,19.73
2018-06-07T20:24:27.944Z,19.63
2018-06-07T20:26:55.399Z,18.23
2018-06-07T20:29:23.014Z,17.07
2018-06-07T20:31:50.609Z,18.20
2018-06-07T20:34:18.117Z,18.60
2018-06-07T20:36:45.674Z,26.80
2018-06-07T20:39:13.092Z,18.27
2018-06-07T20:41:40.583Z,17.13
2018-06-07T20:44:08.076Z,18.30
2018-06-07T20:46:36.152Z,19.80
2018-06-07T20:49:03.694Z,18.00
2018-06-07T20:51:31.516Z,18.93
2018-06-07T20:53:59.121Z,18.57
2018-06-07T20:56:26.572Z,18.43
2018-06-07T20:58:53.945Z,20.53
2018-06-07T21:01:21.513Z,21.83
2018-06-07T21:03:48.908Z,16.17
2018-06-07T21:06:16.594Z,16.50
2018-06-07T21:08:44.153Z,16.03
2018-06-07T21:11:11.695Z,15.97
2018-06-07T21:13:39.147Z,15.30
2018-06-07T21:16:06.621Z,20.87
2018-06-07T21:18:34.276Z,14.90
2018-06-07T21:21:02.405Z,16.83
2018-06-07T21:23:29.971Z,16.83
2018-06-07T21:25:57.865Z,19.50
2018-06-07T21:28:25.349Z,15.70
2018-06-07T21:30:52.933Z,21.07
2018-06-07T21:33:20.493Z,18.77
2018-06-07T21:35:47.981Z,18.83
2018-06-07T21:38:15.600Z,19.40
2018-06-07T21:40:43.358Z,22.97
2018-06-07T21:43:10.812Z,21.37
2018-06-07T21:45:38.258Z,17.03
2018-06-07T21:48:05.715Z,21.50
2018-06-07T21:50:33.374Z,16.37
2018-06-07T21:53:00.834Z,15.23
2018-06-07T21:55:28.231Z,14.57
2018-06-07T21:57:55.682Z,15.07
2018-06-07T22:00:23.179Z,14.17
2018-06-07T22:02:50.616Z,15.63
2018-06-07T22:05:18.164Z,17.40
2018-06-07T22:07:46.189Z,17.23
2018-06-07T22:10:15.213Z,18.37
2018-06-07T22:12:42.936Z,19.10
2018-06-07T22:15:10.486Z,17.73
2018-06-07T22:17:37.964Z,18.03
2018-06-07T22:20:05.456Z,18.07
2018-06-07T22:22:39.824Z,17.17
2018-06-07T22:25:07.275Z,19.93
2018-06-07T22:27:34.703Z,19.70
2018-06-07T22:30:02.120Z,17.97
2018-06-07T22:32:29.618Z,18.93
2018-06-07T22:34:57.123Z,16.83
2018-06-07T22:37:24.617Z,15.77
2018-06-07T22:39:52.081Z,17.10
2018-06-07T22:42:19.528Z,16.83
2018-06-07T22:44:47.063Z,18.43
2018-06-07T22:47:14.524Z,18.33
2018-06-07T22:49:42.155Z,17.97
2018-06-07T22:52:09.672Z,19.23
2018-06-07T22:54:37.179Z,20.17
2018-06-07T22:57:04.832Z,19.87
2018-06-07T22:59:32.300Z,19.47
2018-06-07T23:02:00.030Z,19.67
2018-06-07T23:04:27.535Z,18.40
2018-06-07T23:06:54.997Z,17.63
2018-06-07T23:09:22.402Z,19.43
2018-06-07T23:11:49.974Z,24.13
2018-06-07T23:14:17.476Z,17.93
2018-06-07T23:16:44.877Z,20.27
2018-06-07T23:19:12.362Z,18.90
2018-06-07T23:21:39.944Z,17.47
2018-06-07T23:24:07.381Z,17.33
2018-06-07T23:26:35.063Z,17.23
2018-06-07T23:29:06.947Z,18.57
2018-06-07T23:31:38.066Z,23.33
2018-06-07T23:34:05.651Z,26.83
2018-06-07T23:36:33.141Z,19.33
2018-06-07T23:39:01.018Z,21.57
2018-06-07T23:41:28.564Z,22.33
2018-06-07T23:43:56.138Z,26.90
2018-06-07T23:46:23.695Z,25.13
2018-06-07T23:48:51.132Z,20.67
2018-06-07T23:51:18.734Z,23.50
2018-06-07T23:53:46.432Z,19.87
2018-06-07T23:56:14.118Z,21.87
2018-06-07T23:58:41.588Z,20.47
